sensor_id;sensor_type;location;lat;lon;timestamp;P1;durP1;ratioP1;P2;durP2;ratioP2
46589;SDS011;32313;48.722;9.362;2024-02-21T00:00:02;27.63;;;19.03;;
46589;SDS011;32313;48.722;9.362;2024-02-21T00:02:30;35.23;;;21.43;;
46589;SDS011;32313;48.722;9.362;2024-02-21T00:04:55;28.57;;;19.63;;
46589;SDS011;32313;48.722;9.362;2024-02-21T00:07:21;33.60;;;21.43;;
46589;SDS011;32313;48.722;9.362;2024-02-21T00:09:47;25.53;;;18.53;;
46589;SDS011;32313;48.722;9.362;2024-02-21T00:12:14;27.23;;;17.63;;
46589;SDS011;32313;48.722;9.362;2024-02-21T00:14:40;23.70;;;16.80;;
46589;SDS011;32313;48.722;9.362;2024-02-21T00:17:05;23.03;;;17.33;;
46589;SDS011;32313;48.722;9.362;2024-02-21T00:19:33;27.07;;;18.70;;
46589;SDS011;32313;48.722;9.362;2024-02-21T00:21:59;21.67;;;16.10;;
46589;SDS011;32313;48.722;9.362;2024-02-21T00:24:25;20.03;;;16.40;;
46589;SDS011;32313;48.722;9.362;2024-02-21T00:26:50;25.27;;;16.33;;
46589;SDS011;32313;48.722;9.362;2024-02-21T00:29:16;21.53;;;14.07;;
46589;SDS011;32313;48.722;9.362;2024-02-21T00:31:42;19.83;;;15.50;;
46589;SDS011;32313;48.722;9.362;2024-02-21T00:34:09;22.20;;;16.07;;
46589;SDS011;32313;48.722;9.362;2024-02-21T00:36:35;21.57;;;15.13;;
46589;SDS011;32313;48.722;9.362;2024-02-21T00:39:01;24.53;;;16.37;;
46589;SDS011;32313;48.722;9.362;2024-02-21T00:41:26;24.97;;;16.83;;
46589;SDS011;32313;48.722;9.362;2024-02-21T00:43:52;23.17;;;17.13;;
46589;SDS011;32313;48.722;9.362;2024-02-21T00:46:18;26.40;;;18.53;;
46589;SDS011;32313;48.722;9.362;2024-02-21T00:48:43;26.63;;;20.13;;
46589;SDS011;32313;48.722;9.362;2024-02-21T00:51:09;22.63;;;18.40;;
46589;SDS011;32313;48.722;9.362;2024-02-21T00:53:35;28.07;;;20.33;;
46589;SDS011;32313;48.722;9.362;2024-02-21T00:56:04;29.07;;;20.17;;
46589;SDS011;32313;48.722;9.362;2024-02-21T00:58:30;25.17;;;18.73;;
46589;SDS011;32313;48.722;9.362;2024-02-21T01:00:56;25.63;;;18.80;;
46589;SDS011;32313;48.722;9.362;2024-02-21T01:03:21;26.90;;;19.57;;
46589;SDS011;32313;48.722;9.362;2024-02-21T01:05:47;27.40;;;18.80;;
46589;SDS011;32313;48.722;9.362;2024-02-21T01:08:13;26.40;;;18.50;;
46589;SDS011;32313;48.722;9.362;2024-02-21T01:10:38;27.33;;;17.67;;
46589;SDS011;32313;48.722;9.362;2024-02-21T01:13:04;23.20;;;16.83;;
46589;SDS011;32313;48.722;9.362;2024-02-21T01:15:30;25.07;;;18.07;;
46589;SDS011;32313;48.722;9.362;2024-02-21T01:17:56;23.23;;;17.97;;
46589;SDS011;32313;48.722;9.362;2024-02-21T01:20:22;25.00;;;18.10;;
46589;SDS011;32313;48.722;9.362;2024-02-21T01:22:47;22.50;;;17.73;;
46589;SDS011;32313;48.722;9.362;2024-02-21T01:25:13;24.00;;;16.77;;
46589;SDS011;32313;48.722;9.362;2024-02-21T01:27:39;29.47;;;18.50;;
46589;SDS011;32313;48.722;9.362;2024-02-21T01:30:05;19.90;;;16.97;;
46589;SDS011;32313;48.722;9.362;2024-02-21T01:32:32;21.63;;;16.43;;
46589;SDS011;32313;48.722;9.362;2024-02-21T01:34:58;26.30;;;18.00;;
46589;SDS011;32313;48.722;9.362;2024-02-21T01:37:24;25.77;;;16.37;;
46589;SDS011;32313;48.722;9.362;2024-02-21T01:39:50;21.07;;;15.60;;
46589;SDS011;32313;48.722;9.362;2024-02-21T01:42:15;21.23;;;15.73;;
46589;SDS011;32313;48.722;9.362;2024-02-21T01:44:41;20.80;;;16.20;;
46589;SDS011;32313;48.722;9.362;2024-02-21T01:47:07;22.87;;;16.63;;
46589;SDS011;32313;48.722;9.362;2024-02-21T01:49:33;21.43;;;15.40;;
46589;SDS011;32313;48.722;9.362;2024-02-21T01:51:59;21.53;;;17.03;;
46589;SDS011;32313;48.722;9.362;2024-02-21T01:54:25;20.47;;;16.17;;
46589;SDS011;32313;48.722;9.362;2024-02-21T01:56:53;21.97;;;16.70;;
46589;SDS011;32313;48.722;9.362;2024-02-21T01:59:19;22.17;;;16.77;;
46589;SDS011;32313;48.722;9.362;2024-02-21T02:01:47;20.03;;;15.83;;
46589;SDS011;32313;48.722;9.362;2024-02-21T02:04:13;20.67;;;16.10;;
46589;SDS011;32313;48.722;9.362;2024-02-21T02:06:39;24.90;;;15.97;;
46589;SDS011;32313;48.722;9.362;2024-02-21T02:09:06;20.80;;;15.93;;
46589;SDS011;32313;48.722;9.362;2024-02-21T02:11:32;21.47;;;16.63;;
46589;SDS011;32313;48.722;9.362;2024-02-21T02:13:58;20.50;;;15.00;;
46589;SDS011;32313;48.722;9.362;2024-02-21T02:16:24;20.40;;;15.10;;
46589;SDS011;32313;48.722;9.362;2024-02-21T02:18:49;19.17;;;14.50;;
46589;SDS011;32313;48.722;9.362;2024-02-21T02:21:22;19.30;;;14.67;;
46589;SDS011;32313;48.722;9.362;2024-02-21T02:23:54;17.63;;;13.93;;
46589;SDS011;32313;48.722;9.362;2024-02-21T02:26:20;18.87;;;14.80;;
46589;SDS011;32313;48.722;9.362;2024-02-21T02:28:46;15.83;;;13.37;;
46589;SDS011;32313;48.722;9.362;2024-02-21T02:31:11;22.60;;;15.20;;
46589;SDS011;32313;48.722;9.362;2024-02-21T02:33:37;20.27;;;17.40;;
46589;SDS011;32313;48.722;9.362;2024-02-21T02:36:03;33.70;;;25.37;;
46589;SDS011;32313;48.722;9.362;2024-02-21T02:38:29;38.40;;;31.47;;
46589;SDS011;32313;48.722;9.362;2024-02-21T02:40:55;32.73;;;26.47;;
46589;SDS011;32313;48.722;9.362;2024-02-21T02:43:20;31.53;;;24.77;;
46589;SDS011;32313;48.722;9.362;2024-02-21T02:45:46;23.60;;;20.87;;
46589;SDS011;32313;48.722;9.362;2024-02-21T02:48:12;20.67;;;17.53;;
46589;SDS011;32313;48.722;9.362;2024-02-21T02:50:37;19.87;;;15.83;;
46589;SDS011;32313;48.722;9.362;2024-02-21T02:53:03;16.00;;;14.37;;
46589;SDS011;32313;48.722;9.362;2024-02-21T02:55:29;17.90;;;16.03;;
46589;SDS011;32313;48.722;9.362;2024-02-21T02:57:54;19.40;;;16.40;;
46589;SDS011;32313;48.722;9.362;2024-02-21T03:00:21;26.03;;;19.17;;
46589;SDS011;32313;48.722;9.362;2024-02-21T03:02:48;19.80;;;17.00;;
46589;SDS011;32313;48.722;9.362;2024-02-21T03:05:15;22.17;;;17.20;;
46589;SDS011;32313;48.722;9.362;2024-02-21T03:07:43;23.13;;;14.90;;
46589;SDS011;32313;48.722;9.362;2024-02-21T03:10:09;17.30;;;13.67;;
46589;SDS011;32313;48.722;9.362;2024-02-21T03:12:35;13.83;;;12.27;;
46589;SDS011;32313;48.722;9.362;2024-02-21T03:15:01;14.43;;;12.07;;
46589;SDS011;32313;48.722;9.362;2024-02-21T03:17:28;15.10;;;11.07;;
46589;SDS011;32313;48.722;9.362;2024-02-21T03:19:54;14.63;;;11.53;;
46589;SDS011;32313;48.722;9.362;2024-02-21T03:22:20;16.03;;;12.57;;
46589;SDS011;32313;48.722;9.362;2024-02-21T03:24:49;17.43;;;12.57;;
46589;SDS011;32313;48.722;9.362;2024-02-21T03:27:15;17.87;;;12.10;;
46589;SDS011;32313;48.722;9.362;2024-02-21T03:29:40;15.57;;;11.97;;
46589;SDS011;32313;48.722;9.362;2024-02-21T03:32:06;18.17;;;12.27;;
46589;SDS011;32313;48.722;9.362;2024-02-21T03:34:32;15.23;;;11.60;;
46589;SDS011;32313;48.722;9.362;2024-02-21T03:36:58;17.87;;;12.73;;
46589;SDS011;32313;48.722;9.362;2024-02-21T03:39:25;16.13;;;12.40;;
46589;SDS011;32313;48.722;9.362;2024-02-21T03:41:50;18.27;;;12.67;;
46589;SDS011;32313;48.722;9.362;2024-02-21T03:44:17;15.70;;;12.37;;
46589;SDS011;32313;48.722;9.362;2024-02-21T03:46:42;14.40;;;12.03;;
46589;SDS011;32313;48.722;9.362;2024-02-21T03:49:08;17.20;;;12.90;;
46589;SDS011;32313;48.722;9.362;2024-02-21T03:51:34;22.10;;;18.70;;
46589;SDS011;32313;48.722;9.362;2024-02-21T03:53:59;18.37;;;13.40;;
46589;SDS011;32313;48.722;9.362;2024-02-21T03:56:25;17.67;;;14.27;;
46589;SDS011;32313;48.722;9.362;2024-02-21T03:58:51;19.60;;;14.33;;
46589;SDS011;32313;48.722;9.362;2024-02-21T04:01:16;17.93;;;13.87;;
46589;SDS011;32313;48.722;9.362;2024-02-21T04:03:43;20.53;;;14.27;;
46589;SDS011;32313;48.722;9.362;2024-02-21T04:06:09;16.63;;;13.07;;
46589;SDS011;32313;48.722;9.362;2024-02-21T04:08:35;17.33;;;13.20;;
46589;SDS011;32313;48.722;9.362;2024-02-21T04:11:00;18.03;;;13.07;;
46589;SDS011;32313;48.722;9.362;2024-02-21T04:13:26;16.00;;;13.13;;
46589;SDS011;32313;48.722;9.362;2024-02-21T04:15:52;23.23;;;14.03;;
46589;SDS011;32313;48.722;9.362;2024-02-21T04:18:18;19.53;;;14.80;;
46589;SDS011;32313;48.722;9.362;2024-02-21T04:20:43;17.47;;;13.50;;
46589;SDS011;32313;48.722;9.362;2024-02-21T04:23:09;17.90;;;14.03;;
46589;SDS011;32313;48.722;9.362;2024-02-21T04:25:35;17.53;;;13.57;;
46589;SDS011;32313;48.722;9.362;2024-02-21T04:28:01;16.20;;;14.50;;
46589;SDS011;32313;48.722;9.362;2024-02-21T04:30:27;15.33;;;13.07;;
46589;SDS011;32313;48.722;9.362;2024-02-21T04:32:53;20.63;;;14.27;;
46589;SDS011;32313;48.722;9.362;2024-02-21T04:35:19;19.37;;;14.43;;
46589;SDS011;32313;48.722;9.362;2024-02-21T04:37:45;17.40;;;14.73;;
46589;SDS011;32313;48.722;9.362;2024-02-21T04:40:11;16.40;;;13.27;;
46589;SDS011;32313;48.722;9.362;2024-02-21T04:42:36;15.50;;;13.73;;
46589;SDS011;32313;48.722;9.362;2024-02-21T04:45:02;18.63;;;14.13;;
46589;SDS011;32313;48.722;9.362;2024-02-21T04:47:28;17.17;;;13.83;;
46589;SDS011;32313;48.722;9.362;2024-02-21T04:49:54;15.20;;;13.07;;
46589;SDS011;32313;48.722;9.362;2024-02-21T04:52:20;20.50;;;13.43;;
46589;SDS011;32313;48.722;9.362;2024-02-21T04:54:46;20.87;;;14.93;;
46589;SDS011;32313;48.722;9.362;2024-02-21T04:57:12;23.73;;;16.40;;
46589;SDS011;32313;48.722;9.362;2024-02-21T04:59:42;24.57;;;16.23;;
46589;SDS011;32313;48.722;9.362;2024-02-21T05:02:13;25.70;;;15.40;;
46589;SDS011;32313;48.722;9.362;2024-02-21T05:04:39;20.50;;;14.53;;
46589;SDS011;32313;48.722;9.362;2024-02-21T05:07:06;26.30;;;15.67;;
46589;SDS011;32313;48.722;9.362;2024-02-21T05:09:32;19.83;;;14.13;;
46589;SDS011;32313;48.722;9.362;2024-02-21T05:11:58;28.60;;;16.27;;
46589;SDS011;32313;48.722;9.362;2024-02-21T05:14:26;21.70;;;16.00;;
46589;SDS011;32313;48.722;9.362;2024-02-21T05:16:52;22.33;;;15.80;;
46589;SDS011;32313;48.722;9.362;2024-02-21T05:19:18;24.13;;;16.33;;
46589;SDS011;32313;48.722;9.362;2024-02-21T05:21:50;18.60;;;15.07;;
46589;SDS011;32313;48.722;9.362;2024-02-21T05:24:15;24.70;;;15.90;;
46589;SDS011;32313;48.722;9.362;2024-02-21T05:26:41;25.87;;;15.57;;
46589;SDS011;32313;48.722;9.362;2024-02-21T05:29:13;26.30;;;17.20;;
46589;SDS011;32313;48.722;9.362;2024-02-21T05:34:17;22.87;;;16.47;;
46589;SDS011;32313;48.722;9.362;2024-02-21T05:36:42;21.77;;;15.63;;
46589;SDS011;32313;48.722;9.362;2024-02-21T05:39:09;21.07;;;16.23;;
46589;SDS011;32313;48.722;9.362;2024-02-21T05:41:34;20.73;;;15.33;;
46589;SDS011;32313;48.722;9.362;2024-02-21T05:44:00;24.67;;;15.77;;
46589;SDS011;32313;48.722;9.362;2024-02-21T05:46:26;23.13;;;16.27;;
46589;SDS011;32313;48.722;9.362;2024-02-21T05:48:52;22.60;;;15.90;;
46589;SDS011;32313;48.722;9.362;2024-02-21T05:51:17;20.77;;;16.37;;
46589;SDS011;32313;48.722;9.362;2024-02-21T05:53:43;21.73;;;16.90;;
46589;SDS011;32313;48.722;9.362;2024-02-21T05:56:12;22.43;;;16.57;;
46589;SDS011;32313;48.722;9.362;2024-02-21T05:58:39;22.10;;;16.23;;
46589;SDS011;32313;48.722;9.362;2024-02-21T06:01:05;26.37;;;16.77;;
46589;SDS011;32313;48.722;9.362;2024-02-21T06:03:34;24.50;;;16.60;;
46589;SDS011;32313;48.722;9.362;2024-02-21T06:06:01;23.47;;;16.43;;
46589;SDS011;32313;48.722;9.362;2024-02-21T06:08:27;20.93;;;16.80;;
46589;SDS011;32313;48.722;9.362;2024-02-21T06:10:53;28.60;;;18.73;;
46589;SDS011;32313;48.722;9.362;2024-02-21T06:13:21;21.20;;;16.87;;
46589;SDS011;32313;48.722;9.362;2024-02-21T06:15:49;28.43;;;16.60;;
46589;SDS011;32313;48.722;9.362;2024-02-21T06:18:15;29.20;;;16.50;;
46589;SDS011;32313;48.722;9.362;2024-02-21T06:20:44;20.97;;;15.63;;
46589;SDS011;32313;48.722;9.362;2024-02-21T06:23:11;22.93;;;16.53;;
46589;SDS011;32313;48.722;9.362;2024-02-21T06:25:43;23.77;;;16.07;;
46589;SDS011;32313;48.722;9.362;2024-02-21T06:28:08;26.03;;;16.93;;
46589;SDS011;32313;48.722;9.362;2024-02-21T06:30:35;30.43;;;19.37;;
46589;SDS011;32313;48.722;9.362;2024-02-21T06:33:01;27.40;;;19.10;;
46589;SDS011;32313;48.722;9.362;2024-02-21T06:35:27;42.40;;;21.90;;
46589;SDS011;32313;48.722;9.362;2024-02-21T06:37:54;36.33;;;22.00;;
46589;SDS011;32313;48.722;9.362;2024-02-21T06:40:23;39.33;;;20.60;;
46589;SDS011;32313;48.722;9.362;2024-02-21T06:42:49;42.00;;;22.37;;
46589;SDS011;32313;48.722;9.362;2024-02-21T06:45:15;33.00;;;19.63;;
46589;SDS011;32313;48.722;9.362;2024-02-21T06:47:42;31.50;;;19.00;;
46589;SDS011;32313;48.722;9.362;2024-02-21T06:50:08;32.23;;;19.73;;
46589;SDS011;32313;48.722;9.362;2024-02-21T06:52:34;29.43;;;18.27;;
46589;SDS011;32313;48.722;9.362;2024-02-21T06:55:01;25.97;;;18.33;;
46589;SDS011;32313;48.722;9.362;2024-02-21T06:57:28;21.87;;;16.97;;
46589;SDS011;32313;48.722;9.362;2024-02-21T06:59:54;25.13;;;17.60;;
46589;SDS011;32313;48.722;9.362;2024-02-21T07:02:20;23.47;;;17.37;;
46589;SDS011;32313;48.722;9.362;2024-02-21T07:04:45;22.90;;;18.17;;
46589;SDS011;32313;48.722;9.362;2024-02-21T07:07:11;21.13;;;17.93;;
46589;SDS011;32313;48.722;9.362;2024-02-21T07:09:38;25.20;;;18.27;;
46589;SDS011;32313;48.722;9.362;2024-02-21T07:12:04;21.97;;;16.57;;
46589;SDS011;32313;48.722;9.362;2024-02-21T07:14:30;27.77;;;16.63;;
46589;SDS011;32313;48.722;9.362;2024-02-21T07:16:57;25.13;;;17.17;;
46589;SDS011;32313;48.722;9.362;2024-02-21T07:19:23;25.20;;;18.20;;
46589;SDS011;32313;48.722;9.362;2024-02-21T07:21:48;34.27;;;23.47;;
46589;SDS011;32313;48.722;9.362;2024-02-21T07:24:14;34.23;;;22.10;;
46589;SDS011;32313;48.722;9.362;2024-02-21T07:26:43;36.27;;;21.93;;
46589;SDS011;32313;48.722;9.362;2024-02-21T07:29:11;25.33;;;19.83;;
46589;SDS011;32313;48.722;9.362;2024-02-21T07:31:43;28.27;;;18.23;;
46589;SDS011;32313;48.722;9.362;2024-02-21T07:34:09;24.73;;;16.03;;
46589;SDS011;32313;48.722;9.362;2024-02-21T07:36:35;23.10;;;17.30;;
46589;SDS011;32313;48.722;9.362;2024-02-21T07:39:04;26.03;;;16.10;;
46589;SDS011;32313;48.722;9.362;2024-02-21T07:41:30;22.47;;;15.13;;
46589;SDS011;32313;48.722;9.362;2024-02-21T07:43:56;24.47;;;14.67;;
46589;SDS011;32313;48.722;9.362;2024-02-21T07:46:22;22.00;;;13.50;;
46589;SDS011;32313;48.722;9.362;2024-02-21T07:48:48;20.80;;;12.93;;
46589;SDS011;32313;48.722;9.362;2024-02-21T07:51:14;18.93;;;12.47;;
46589;SDS011;32313;48.722;9.362;2024-02-21T07:53:43;27.77;;;13.47;;
46589;SDS011;32313;48.722;9.362;2024-02-21T07:56:13;20.17;;;12.70;;
46589;SDS011;32313;48.722;9.362;2024-02-21T07:58:40;22.83;;;12.70;;
46589;SDS011;32313;48.722;9.362;2024-02-21T08:01:05;19.40;;;11.90;;
46589;SDS011;32313;48.722;9.362;2024-02-21T08:03:31;21.03;;;11.03;;
46589;SDS011;32313;48.722;9.362;2024-02-21T08:05:57;18.27;;;11.50;;
46589;SDS011;32313;48.722;9.362;2024-02-21T08:08:23;21.50;;;11.63;;
46589;SDS011;32313;48.722;9.362;2024-02-21T08:10:50;20.37;;;10.77;;
46589;SDS011;32313;48.722;9.362;2024-02-21T08:13:15;26.57;;;14.07;;
46589;SDS011;32313;48.722;9.362;2024-02-21T08:15:41;14.97;;;12.00;;
46589;SDS011;32313;48.722;9.362;2024-02-21T08:18:07;21.97;;;13.53;;
46589;SDS011;32313;48.722;9.362;2024-02-21T08:20:33;23.17;;;12.80;;
46589;SDS011;32313;48.722;9.362;2024-02-21T08:22:59;24.00;;;12.60;;
46589;SDS011;32313;48.722;9.362;2024-02-21T08:25:25;25.83;;;12.80;;
46589;SDS011;32313;48.722;9.362;2024-02-21T08:27:50;18.13;;;11.53;;
46589;SDS011;32313;48.722;9.362;2024-02-21T08:30:19;16.20;;;10.83;;
46589;SDS011;32313;48.722;9.362;2024-02-21T08:32:45;18.63;;;11.50;;
46589;SDS011;32313;48.722;9.362;2024-02-21T08:35:11;15.70;;;10.20;;
46589;SDS011;32313;48.722;9.362;2024-02-21T08:37:37;16.27;;;10.20;;
46589;SDS011;32313;48.722;9.362;2024-02-21T08:40:03;18.30;;;9.43;;
46589;SDS011;32313;48.722;9.362;2024-02-21T08:42:38;13.13;;;9.47;;
46589;SDS011;32313;48.722;9.362;2024-02-21T08:45:05;13.03;;;8.60;;
46589;SDS011;32313;48.722;9.362;2024-02-21T08:47:33;17.17;;;9.33;;
46589;SDS011;32313;48.722;9.362;2024-02-21T08:49:58;12.80;;;8.33;;
46589;SDS011;32313;48.722;9.362;2024-02-21T08:52:24;11.37;;;8.40;;
46589;SDS011;32313;48.722;9.362;2024-02-21T08:54:50;12.77;;;8.17;;
46589;SDS011;32313;48.722;9.362;2024-02-21T08:57:18;13.83;;;8.70;;
46589;SDS011;32313;48.722;9.362;2024-02-21T08:59:44;10.27;;;7.70;;
46589;SDS011;32313;48.722;9.362;2024-02-21T09:02:10;11.00;;;7.50;;
46589;SDS011;32313;48.722;9.362;2024-02-21T09:04:35;10.00;;;8.10;;
46589;SDS011;32313;48.722;9.362;2024-02-21T09:07:01;9.57;;;7.23;;
46589;SDS011;32313;48.722;9.362;2024-02-21T09:09:27;9.93;;;7.57;;
46589;SDS011;32313;48.722;9.362;2024-02-21T09:11:53;11.23;;;6.93;;
46589;SDS011;32313;48.722;9.362;2024-02-21T09:14:19;9.13;;;7.33;;
46589;SDS011;32313;48.722;9.362;2024-02-21T09:16:45;12.03;;;7.13;;
46589;SDS011;32313;48.722;9.362;2024-02-21T09:19:10;12.27;;;7.13;;
46589;SDS011;32313;48.722;9.362;2024-02-21T09:21:37;11.10;;;7.63;;
46589;SDS011;32313;48.722;9.362;2024-02-21T09:24:03;10.20;;;6.77;;
46589;SDS011;32313;48.722;9.362;2024-02-21T09:26:30;10.07;;;6.57;;
46589;SDS011;32313;48.722;9.362;2024-02-21T09:28:56;10.20;;;6.87;;
46589;SDS011;32313;48.722;9.362;2024-02-21T09:31:22;9.33;;;6.27;;
46589;SDS011;32313;48.722;9.362;2024-02-21T09:33:48;9.33;;;6.40;;
46589;SDS011;32313;48.722;9.362;2024-02-21T09:36:14;9.00;;;6.70;;
46589;SDS011;32313;48.722;9.362;2024-02-21T09:38:40;9.57;;;7.00;;
46589;SDS011;32313;48.722;9.362;2024-02-21T09:41:21;7.27;;;6.33;;
46589;SDS011;32313;48.722;9.362;2024-02-21T09:43:52;9.03;;;6.20;;
46589;SDS011;32313;48.722;9.362;2024-02-21T09:46:19;10.97;;;6.63;;
46589;SDS011;32313;48.722;9.362;2024-02-21T09:51:57;8.17;;;5.63;;
46589;SDS011;32313;48.722;9.362;2024-02-21T09:54:28;10.03;;;5.47;;
46589;SDS011;32313;48.722;9.362;2024-02-21T09:56:57;7.40;;;5.20;;
46589;SDS011;32313;48.722;9.362;2024-02-21T09:59:24;7.03;;;4.53;;
46589;SDS011;32313;48.722;9.362;2024-02-21T10:01:52;6.93;;;4.40;;
46589;SDS011;32313;48.722;9.362;2024-02-21T10:04:20;9.63;;;5.27;;
46589;SDS011;32313;48.722;9.362;2024-02-21T10:06:46;6.10;;;4.83;;
46589;SDS011;32313;48.722;9.362;2024-02-21T10:11:48;6.60;;;4.30;;
46589;SDS011;32313;48.722;9.362;2024-02-21T10:14:15;8.10;;;4.57;;
46589;SDS011;32313;48.722;9.362;2024-02-21T10:16:41;7.40;;;3.50;;
46589;SDS011;32313;48.722;9.362;2024-02-21T10:19:15;5.83;;;3.50;;
46589;SDS011;32313;48.722;9.362;2024-02-21T10:24:43;5.83;;;3.47;;
46589;SDS011;32313;48.722;9.362;2024-02-21T10:27:09;7.07;;;3.37;;
46589;SDS011;32313;48.722;9.362;2024-02-21T10:29:38;7.97;;;3.40;;
46589;SDS011;32313;48.722;9.362;2024-02-21T10:32:11;6.40;;;3.70;;
46589;SDS011;32313;48.722;9.362;2024-02-21T10:34:39;7.17;;;3.60;;
46589;SDS011;32313;48.722;9.362;2024-02-21T10:37:06;7.17;;;3.60;;
46589;SDS011;32313;48.722;9.362;2024-02-21T10:39:37;5.70;;;3.20;;
46589;SDS011;32313;48.722;9.362;2024-02-21T10:42:04;5.80;;;3.00;;
46589;SDS011;32313;48.722;9.362;2024-02-21T10:44:31;6.53;;;3.27;;
46589;SDS011;32313;48.722;9.362;2024-02-21T10:46:57;6.57;;;3.20;;
46589;SDS011;32313;48.722;9.362;2024-02-21T10:49:24;6.57;;;3.50;;
46589;SDS011;32313;48.722;9.362;2024-02-21T10:51:59;5.70;;;2.83;;
46589;SDS011;32313;48.722;9.362;2024-02-21T10:57:10;5.27;;;3.50;;
46589;SDS011;32313;48.722;9.362;2024-02-21T10:59:39;4.73;;;2.50;;
46589;SDS011;32313;48.722;9.362;2024-02-21T11:02:05;4.43;;;2.90;;
46589;SDS011;32313;48.722;9.362;2024-02-21T11:04:31;5.70;;;2.90;;
46589;SDS011;32313;48.722;9.362;2024-02-21T11:07:01;6.93;;;3.20;;
46589;SDS011;32313;48.722;9.362;2024-02-21T11:09:32;5.70;;;3.10;;
46589;SDS011;32313;48.722;9.362;2024-02-21T11:12:01;5.60;;;3.13;;
46589;SDS011;32313;48.722;9.362;2024-02-21T11:14:28;5.50;;;2.63;;
46589;SDS011;32313;48.722;9.362;2024-02-21T11:16:57;6.27;;;2.83;;
46589;SDS011;32313;48.722;9.362;2024-02-21T11:19:27;4.30;;;2.93;;
46589;SDS011;32313;48.722;9.362;2024-02-21T11:21:54;5.17;;;3.00;;
46589;SDS011;32313;48.722;9.362;2024-02-21T11:24:31;6.77;;;3.03;;
46589;SDS011;32313;48.722;9.362;2024-02-21T11:27:13;6.80;;;3.50;;
46589;SDS011;32313;48.722;9.362;2024-02-21T11:29:47;7.67;;;3.00;;
46589;SDS011;32313;48.722;9.362;2024-02-21T11:32:17;5.00;;;2.97;;
46589;SDS011;32313;48.722;9.362;2024-02-21T11:35:00;5.57;;;3.00;;
46589;SDS011;32313;48.722;9.362;2024-02-21T11:37:28;4.30;;;3.00;;
46589;SDS011;32313;48.722;9.362;2024-02-21T11:39:55;5.37;;;3.10;;
46589;SDS011;32313;48.722;9.362;2024-02-21T11:42:21;6.43;;;3.10;;
46589;SDS011;32313;48.722;9.362;2024-02-21T11:45:06;3.13;;;2.80;;
46589;SDS011;32313;48.722;9.362;2024-02-21T11:47:33;4.03;;;2.70;;
46589;SDS011;32313;48.722;9.362;2024-02-21T11:49:59;5.80;;;3.10;;
46589;SDS011;32313;48.722;9.362;2024-02-21T11:52:25;4.83;;;3.20;;
46589;SDS011;32313;48.722;9.362;2024-02-21T11:54:51;3.80;;;2.60;;
46589;SDS011;32313;48.722;9.362;2024-02-21T11:57:17;4.50;;;2.67;;
46589;SDS011;32313;48.722;9.362;2024-02-21T11:59:47;6.93;;;3.40;;
46589;SDS011;32313;48.722;9.362;2024-02-21T12:02:14;4.10;;;2.97;;
46589;SDS011;32313;48.722;9.362;2024-02-21T12:04:41;4.63;;;3.20;;
46589;SDS011;32313;48.722;9.362;2024-02-21T12:07:08;3.33;;;2.77;;
46589;SDS011;32313;48.722;9.362;2024-02-21T12:09:34;4.20;;;2.87;;
46589;SDS011;32313;48.722;9.362;2024-02-21T12:12:01;7.50;;;3.00;;
46589;SDS011;32313;48.722;9.362;2024-02-21T12:14:31;3.50;;;2.60;;
46589;SDS011;32313;48.722;9.362;2024-02-21T12:17:01;3.33;;;2.47;;
46589;SDS011;32313;48.722;9.362;2024-02-21T12:19:31;4.53;;;2.70;;
46589;SDS011;32313;48.722;9.362;2024-02-21T12:21:58;5.37;;;2.90;;
46589;SDS011;32313;48.722;9.362;2024-02-21T12:24:25;5.67;;;2.83;;
46589;SDS011;32313;48.722;9.362;2024-02-21T12:26:52;4.10;;;2.73;;
46589;SDS011;32313;48.722;9.362;2024-02-21T12:29:18;5.33;;;2.97;;
46589;SDS011;32313;48.722;9.362;2024-02-21T12:31:45;3.93;;;2.83;;
46589;SDS011;32313;48.722;9.362;2024-02-21T12:34:10;3.67;;;2.50;;
46589;SDS011;32313;48.722;9.362;2024-02-21T12:36:40;4.00;;;2.87;;
46589;SDS011;32313;48.722;9.362;2024-02-21T12:39:12;2.83;;;2.30;;
46589;SDS011;32313;48.722;9.362;2024-02-21T12:41:38;3.97;;;2.63;;
46589;SDS011;32313;48.722;9.362;2024-02-21T12:44:06;3.97;;;2.63;;
46589;SDS011;32313;48.722;9.362;2024-02-21T12:46:33;5.50;;;2.63;;
46589;SDS011;32313;48.722;9.362;2024-02-21T12:48:59;3.20;;;2.73;;
46589;SDS011;32313;48.722;9.362;2024-02-21T12:51:25;3.40;;;2.50;;
46589;SDS011;32313;48.722;9.362;2024-02-21T12:53:51;4.77;;;2.50;;
46589;SDS011;32313;48.722;9.362;2024-02-21T12:56:17;4.70;;;2.80;;
46589;SDS011;32313;48.722;9.362;2024-02-21T12:58:44;3.83;;;2.50;;
46589;SDS011;32313;48.722;9.362;2024-02-21T13:01:10;5.13;;;2.47;;
46589;SDS011;32313;48.722;9.362;2024-02-21T13:03:36;3.20;;;2.07;;
46589;SDS011;32313;48.722;9.362;2024-02-21T13:06:01;2.60;;;2.13;;
46589;SDS011;32313;48.722;9.362;2024-02-21T13:08:27;2.83;;;2.60;;
46589;SDS011;32313;48.722;9.362;2024-02-21T13:10:53;4.47;;;2.60;;
46589;SDS011;32313;48.722;9.362;2024-02-21T13:13:18;2.83;;;2.30;;
46589;SDS011;32313;48.722;9.362;2024-02-21T13:15:44;3.30;;;2.17;;
46589;SDS011;32313;48.722;9.362;2024-02-21T13:18:10;5.30;;;2.40;;
46589;SDS011;32313;48.722;9.362;2024-02-21T13:20:36;3.53;;;2.50;;
46589;SDS011;32313;48.722;9.362;2024-02-21T13:23:03;3.23;;;2.17;;
46589;SDS011;32313;48.722;9.362;2024-02-21T13:25:29;3.70;;;2.60;;
46589;SDS011;32313;48.722;9.362;2024-02-21T13:27:55;3.27;;;2.50;;
46589;SDS011;32313;48.722;9.362;2024-02-21T13:30:27;2.80;;;2.07;;
46589;SDS011;32313;48.722;9.362;2024-02-21T13:32:53;3.30;;;2.10;;
46589;SDS011;32313;48.722;9.362;2024-02-21T13:35:19;2.87;;;2.30;;
46589;SDS011;32313;48.722;9.362;2024-02-21T13:37:45;2.70;;;2.30;;
46589;SDS011;32313;48.722;9.362;2024-02-21T13:40:11;2.40;;;2.20;;
46589;SDS011;32313;48.722;9.362;2024-02-21T13:42:40;3.67;;;2.47;;
46589;SDS011;32313;48.722;9.362;2024-02-21T13:45:06;2.67;;;2.40;;
46589;SDS011;32313;48.722;9.362;2024-02-21T13:47:32;6.00;;;2.93;;
46589;SDS011;32313;48.722;9.362;2024-02-21T13:49:59;3.80;;;2.33;;
46589;SDS011;32313;48.722;9.362;2024-02-21T13:52:25;3.03;;;2.10;;
46589;SDS011;32313;48.722;9.362;2024-02-21T13:54:54;4.03;;;2.60;;
46589;SDS011;32313;48.722;9.362;2024-02-21T13:57:19;2.97;;;2.17;;
46589;SDS011;32313;48.722;9.362;2024-02-21T13:59:45;2.90;;;2.10;;
46589;SDS011;32313;48.722;9.362;2024-02-21T14:02:11;5.53;;;2.47;;
46589;SDS011;32313;48.722;9.362;2024-02-21T14:04:37;4.57;;;2.50;;
46589;SDS011;32313;48.722;9.362;2024-02-21T14:07:03;3.03;;;2.33;;
46589;SDS011;32313;48.722;9.362;2024-02-21T14:09:29;2.60;;;2.40;;
46589;SDS011;32313;48.722;9.362;2024-02-21T14:11:55;3.67;;;2.50;;
46589;SDS011;32313;48.722;9.362;2024-02-21T14:14:20;3.67;;;2.50;;
46589;SDS011;32313;48.722;9.362;2024-02-21T14:16:46;2.90;;;2.40;;
46589;SDS011;32313;48.722;9.362;2024-02-21T14:19:13;5.53;;;2.63;;
46589;SDS011;32313;48.722;9.362;2024-02-21T14:21:39;3.07;;;2.40;;
46589;SDS011;32313;48.722;9.362;2024-02-21T14:24:05;3.67;;;2.60;;
46589;SDS011;32313;48.722;9.362;2024-02-21T14:26:31;3.27;;;2.50;;
46589;SDS011;32313;48.722;9.362;2024-02-21T14:28:57;4.37;;;2.60;;
46589;SDS011;32313;48.722;9.362;2024-02-21T14:31:23;3.20;;;2.90;;
46589;SDS011;32313;48.722;9.362;2024-02-21T14:33:50;3.73;;;2.80;;
46589;SDS011;32313;48.722;9.362;2024-02-21T14:36:16;3.90;;;2.20;;
46589;SDS011;32313;48.722;9.362;2024-02-21T14:38:42;4.77;;;2.57;;
46589;SDS011;32313;48.722;9.362;2024-02-21T14:41:08;4.10;;;2.63;;